Time;durP1;ratioP1;P1;durP2;ratioP2;P2;SDS_P1;SDS_P2;PMS_P1;PMS_P2;Temp;Humidity;BMP_temperature;BMP_pressure;BME280_temperature;BME280_humidity;BME280_pressure;Samples;Min_cycle;Max_cycle;Signal;HPM_P1;HPM_P2
2022/11/23 00:00:30;;;;;;;6.00;4.83;;;;;;;;;;4999656;28;20643;-70
2022/11/23 00:02:56;;;;;;;6.17;5.17;;;;;;;;;;4997429;28;20187;-70
2022/11/23 00:05:22;;;;;;;8.13;5.07;;;;;;;;;;5008506;28;20733;-70
2022/11/23 00:07:47;;;;;;;5.60;4.97;;;;;;;;;;5010617;28;20876;-69
2022/11/23 00:10:12;;;;;;;5.90;4.90;;;;;;;;;;5008987;28;20173;-70
2022/11/23 00:12:38;;;;;;;5.53;5.03;;;;;;;;;;5013704;28;20239;-70
2022/11/23 00:15:03;;;;;;;6.70;5.40;;;;;;;;;;5012995;28;20654;-70
2022/11/23 00:17:29;;;;;;;5.40;4.87;;;;;;;;;;4982168;28;20184;-70
2022/11/23 00:19:54;;;;;;;6.60;5.23;;;;;;;;;;5006921;28;20435;-69
2022/11/23 00:22:19;;;;;;;7.73;5.10;;;;;;;;;;5017040;28;20174;-70
2022/11/23 00:24:45;;;;;;;6.80;5.13;;;;;;;;;;5009748;28;20596;-70
2022/11/23 00:27:10;;;;;;;7.47;5.30;;;;;;;;;;5018471;28;20211;-70
2022/11/23 00:29:35;;;;;;;6.90;5.47;;;;;;;;;;5023408;28;20208;-70
2022/11/23 00:32:00;;;;;;;6.87;5.23;;;;;;;;;;5021430;28;20208;-70
2022/11/23 00:34:26;;;;;;;6.37;5.77;;;;;;;;;;5000663;28;20192;-70
2022/11/23 00:36:51;;;;;;;8.23;6.13;;;;;;;;;;5023282;28;20547;-69
2022/11/23 00:39:16;;;;;;;5.97;5.37;;;;;;;;;;5020776;28;20292;-70
2022/11/23 00:41:41;;;;;;;7.80;5.37;;;;;;;;;;5020839;28;20218;-70
2022/11/23 00:44:07;;;;;;;6.70;6.10;;;;;;;;;;5024332;28;20666;-70
2022/11/23 00:46:32;;;;;;;5.87;5.27;;;;;;;;;;5019105;28;20295;-70
2022/11/23 00:48:59;;;;;;;7.50;6.10;;;;;;;;;;5021871;28;20193;-70
2022/11/23 00:51:28;;;;;;;6.90;5.80;;;;;;;;;;5009073;28;20212;-69
2022/11/23 00:53:54;;;;;;;7.40;6.17;;;;;;;;;;5003239;28;20428;-70
2022/11/23 00:56:19;;;;;;;7.00;5.90;;;;;;;;;;5007125;28;20489;-70
2022/11/23 00:58:49;;;;;;;7.17;6.53;;;;;;;;;;5013648;28;20209;-70
2022/11/23 01:01:14;;;;;;;7.07;6.47;;;;;;;;;;5014736;28;20719;-70
2022/11/23 01:03:41;;;;;;;7.07;6.30;;;;;;;;;;5011714;28;20434;-70
2022/11/23 01:06:07;;;;;;;7.50;6.70;;;;;;;;;;5010546;28;20722;-70
2022/11/23 01:08:33;;;;;;;8.50;7.47;;;;;;;;;;5009821;28;20485;-70
2022/11/23 01:10:59;;;;;;;8.03;7.23;;;;;;;;;;5016671;28;20436;-70
2022/11/23 01:13:24;;;;;;;7.70;7.00;;;;;;;;;;4992632;28;20240;-70
2022/11/23 01:15:50;;;;;;;8.00;6.80;;;;;;;;;;5016614;28;20512;-70
2022/11/23 01:18:15;;;;;;;8.07;7.27;;;;;;;;;;5014543;28;20228;-70
2022/11/23 01:20:40;;;;;;;7.97;7.17;;;;;;;;;;4997453;28;20188;-70
2022/11/23 01:23:06;;;;;;;7.77;7.07;;;;;;;;;;4999742;28;20192;-70
2022/11/23 01:25:31;;;;;;;7.63;6.93;;;;;;;;;;5011076;28;20231;-69
2022/11/23 01:27:56;;;;;;;9.43;8.40;;;;;;;;;;5011818;28;20203;-70
2022/11/23 01:30:21;;;;;;;7.60;6.80;;;;;;;;;;5013717;28;20176;-70
2022/11/23 01:32:47;;;;;;;8.10;7.40;;;;;;;;;;5010917;28;20553;-70
2022/11/23 01:35:12;;;;;;;7.83;7.20;;;;;;;;;;5016890;28;20192;-70
2022/11/23 01:37:37;;;;;;;8.77;7.87;;;;;;;;;;5019310;28;20671;-70
2022/11/23 01:40:03;;;;;;;8.47;7.47;;;;;;;;;;5015991;28;20287;-70
2022/11/23 01:42:47;;;;;;;8.17;7.40;;;;;;;;;;5019720;28;20283;-70
2022/11/23 01:45:31;;;;;;;8.73;7.67;;;;;;;;;;5001743;28;20231;-69
2022/11/23 01:47:56;;;;;;;8.90;8.00;;;;;;;;;;4990491;28;20451;-70
2022/11/23 01:50:21;;;;;;;8.80;8.00;;;;;;;;;;5013222;28;20466;-70
2022/11/23 01:52:47;;;;;;;8.23;7.50;;;;;;;;;;5012968;28;20803;-70
2022/11/23 01:55:14;;;;;;;7.13;6.43;;;;;;;;;;5016636;28;20243;-70
2022/11/23 01:57:41;;;;;;;8.83;8.03;;;;;;;;;;5002360;28;20197;-70
2022/11/23 02:00:07;;;;;;;7.30;6.60;;;;;;;;;;5018138;28;20426;-70
2022/11/23 02:02:33;;;;;;;8.87;7.97;;;;;;;;;;5016437;28;20489;-70
2022/11/23 02:05:01;;;;;;;8.33;7.60;;;;;;;;;;5016152;28;20555;-70
2022/11/23 02:07:27;;;;;;;9.93;8.47;;;;;;;;;;5014665;28;20435;-69
2022/11/23 02:09:52;;;;;;;9.37;7.97;;;;;;;;;;5013434;28;20467;-70
2022/11/23 02:12:18;;;;;;;8.13;7.33;;;;;;;;;;4994525;28;20428;-70
2022/11/23 02:14:43;;;;;;;10.30;8.47;;;;;;;;;;4997783;28;20211;-70
2022/11/23 02:17:09;;;;;;;8.70;7.83;;;;;;;;;;5012938;28;20209;-70
2022/11/23 02:19:46;;;;;;;8.67;7.10;;;;;;;;;;5011154;28;20204;-70
2022/11/23 02:22:32;;;;;;;10.00;8.60;;;;;;;;;;5014184;28;20878;-70
2022/11/23 02:24:58;;;;;;;9.23;8.33;;;;;;;;;;4959342;28;20956;-70
2022/11/23 02:27:24;;;;;;;9.00;8.10;;;;;;;;;;5013196;28;20440;-70
2022/11/23 02:29:50;;;;;;;8.10;7.30;;;;;;;;;;5016362;28;20834;-70
2022/11/23 02:32:21;;;;;;;9.73;7.50;;;;;;;;;;5017815;28;20180;-70
2022/11/23 02:34:47;;;;;;;8.37;7.57;;;;;;;;;;5001034;28;20239;-69
2022/11/23 02:37:12;;;;;;;8.60;7.80;;;;;;;;;;5015964;28;20439;-70
2022/11/23 02:39:44;;;;;;;8.67;7.83;;;;;;;;;;5000529;28;20257;-70
2022/11/23 02:42:09;;;;;;;8.03;7.23;;;;;;;;;;5020408;28;20192;-70
2022/11/23 02:44:53;;;;;;;9.03;8.20;;;;;;;;;;5016278;28;20432;-70
2022/11/23 02:47:19;;;;;;;8.80;8.00;;;;;;;;;;5004359;28;20184;-70
2022/11/23 02:49:45;;;;;;;8.00;7.23;;;;;;;;;;5011401;28;21172;-70
2022/11/23 02:52:10;;;;;;;10.17;8.17;;;;;;;;;;4996470;28;20675;-70
2022/11/23 02:54:36;;;;;;;9.10;8.20;;;;;;;;;;4998984;28;20458;-70
2022/11/23 02:57:01;;;;;;;8.50;7.80;;;;;;;;;;5013025;28;20183;-70
2022/11/23 02:59:27;;;;;;;7.93;7.20;;;;;;;;;;5008313;28;20549;-70
2022/11/23 03:01:53;;;;;;;9.27;7.20;;;;;;;;;;4991531;28;20184;-70
2022/11/23 03:04:18;;;;;;;9.43;8.40;;;;;;;;;;5016011;28;20430;-70
2022/11/23 03:06:43;;;;;;;9.57;8.67;;;;;;;;;;5010371;28;20207;-70
2022/11/23 03:09:09;;;;;;;8.60;7.90;;;;;;;;;;4990646;28;20200;-70
2022/11/23 03:11:35;;;;;;;9.10;8.27;;;;;;;;;;5008591;28;20191;-70
2022/11/23 03:14:00;;;;;;;9.70;8.60;;;;;;;;;;5009009;28;20432;-70
2022/11/23 03:16:25;;;;;;;9.50;8.70;;;;;;;;;;5000291;28;20529;-70
2022/11/23 03:18:50;;;;;;;9.57;8.60;;;;;;;;;;5014267;28;20211;-70
2022/11/23 03:21:16;;;;;;;10.13;9.27;;;;;;;;;;5016230;28;20212;-70
2022/11/23 03:23:41;;;;;;;9.57;8.73;;;;;;;;;;5015715;28;20227;-70
2022/11/23 03:26:06;;;;;;;8.87;8.17;;;;;;;;;;5014105;28;20674;-70
2022/11/23 03:28:32;;;;;;;8.07;7.37;;;;;;;;;;5008269;28;20193;-70
2022/11/23 03:30:57;;;;;;;10.07;9.20;;;;;;;;;;5009406;28;20272;-70
2022/11/23 03:33:22;;;;;;;10.53;7.93;;;;;;;;;;5010717;28;20175;-70
2022/11/23 03:35:47;;;;;;;9.00;8.20;;;;;;;;;;5011594;28;20655;-70
2022/11/23 03:38:13;;;;;;;11.00;9.10;;;;;;;;;;5000030;28;20234;-70
2022/11/23 03:40:38;;;;;;;9.60;8.80;;;;;;;;;;5015677;28;20208;-70
2022/11/23 03:43:04;;;;;;;9.73;8.87;;;;;;;;;;5017269;28;20873;-70
2022/11/23 03:45:29;;;;;;;9.30;8.50;;;;;;;;;;5014178;28;20208;-70
2022/11/23 03:47:54;;;;;;;9.30;7.87;;;;;;;;;;5010013;28;20211;-70
2022/11/23 03:50:19;;;;;;;11.27;10.00;;;;;;;;;;5001531;28;20175;-70
2022/11/23 03:52:48;;;;;;;9.97;9.17;;;;;;;;;;5013998;28;20184;-70
2022/11/23 03:55:13;;;;;;;9.90;8.97;;;;;;;;;;5008980;28;20664;-70
2022/11/23 03:57:38;;;;;;;10.13;9.10;;;;;;;;;;5011166;28;20434;-70
2022/11/23 04:00:04;;;;;;;9.40;8.60;;;;;;;;;;4998507;28;20628;-69
2022/11/23 04:02:29;;;;;;;9.20;8.47;;;;;;;;;;5017792;28;20172;-70
2022/11/23 04:04:55;;;;;;;9.50;8.53;;;;;;;;;;5014884;28;20577;-70
2022/11/23 04:07:20;;;;;;;9.00;8.30;;;;;;;;;;5009058;28;20201;-70
2022/11/23 04:09:45;;;;;;;9.50;8.60;;;;;;;;;;5015982;28;20201;-70
2022/11/23 04:12:10;;;;;;;10.73;9.00;;;;;;;;;;5008843;28;20207;-70
2022/11/23 04:14:36;;;;;;;9.77;9.07;;;;;;;;;;5011432;28;20184;-70
2022/11/23 04:17:01;;;;;;;9.77;8.87;;;;;;;;;;5012573;28;20557;-70
2022/11/23 04:19:27;;;;;;;10.97;10.07;;;;;;;;;;5005128;28;20209;-70
2022/11/23 04:21:53;;;;;;;11.57;10.43;;;;;;;;;;5016704;28;20180;-70
2022/11/23 04:24:20;;;;;;;10.57;9.67;;;;;;;;;;5016202;28;20312;-70
2022/11/23 04:26:45;;;;;;;11.13;10.13;;;;;;;;;;5012242;28;20234;-70
2022/11/23 04:29:11;;;;;;;10.50;9.60;;;;;;;;;;5012754;28;20480;-70
2022/11/23 04:31:36;;;;;;;10.90;9.43;;;;;;;;;;4998174;28;20199;-70
2022/11/23 04:34:01;;;;;;;11.33;10.17;;;;;;;;;;5014589;28;20183;-70
2022/11/23 04:36:27;;;;;;;11.20;10.00;;;;;;;;;;4999395;28;20188;-70
2022/11/23 04:38:52;;;;;;;10.93;9.93;;;;;;;;;;4996723;28;20211;-70
2022/11/23 04:41:18;;;;;;;12.07;10.90;;;;;;;;;;5013536;28;20212;-70
2022/11/23 04:43:43;;;;;;;11.47;10.50;;;;;;;;;;5014453;28;20191;-70
2022/11/23 04:46:09;;;;;;;12.37;11.27;;;;;;;;;;5004343;28;20200;-70
2022/11/23 04:48:35;;;;;;;10.87;9.77;;;;;;;;;;5012523;28;20201;-70
2022/11/23 04:51:00;;;;;;;12.47;11.37;;;;;;;;;;5007118;28;20796;-70
2022/11/23 04:53:25;;;;;;;11.70;10.57;;;;;;;;;;5006685;28;20276;-70
2022/11/23 04:55:50;;;;;;;13.70;12.30;;;;;;;;;;5025271;23;20391;-66
2022/11/23 04:58:16;;;;;;;12.97;11.60;;;;;;;;;;5030670;28;20608;-66
2022/11/23 05:00:41;;;;;;;11.80;10.70;;;;;;;;;;5000455;28;20738;-66
2022/11/23 05:03:06;;;;;;;11.67;10.57;;;;;;;;;;5016905;28;20634;-66
2022/11/23 05:05:32;;;;;;;11.60;10.60;;;;;;;;;;5010519;28;20204;-66
2022/11/23 05:07:58;;;;;;;11.73;10.63;;;;;;;;;;5016438;28;20188;-67
2022/11/23 05:10:23;;;;;;;11.43;10.33;;;;;;;;;;5016930;28;20647;-66
2022/11/23 05:12:48;;;;;;;11.33;10.30;;;;;;;;;;5011195;28;20457;-66
2022/11/23 05:15:14;;;;;;;12.67;11.37;;;;;;;;;;5011066;28;20833;-66
2022/11/23 05:17:39;;;;;;;11.73;10.20;;;;;;;;;;5017326;28;20208;-66
2022/11/23 05:20:05;;;;;;;13.13;11.50;;;;;;;;;;5017247;28;20176;-66
2022/11/23 05:22:31;;;;;;;11.97;10.87;;;;;;;;;;5030606;28;20774;-67
2022/11/23 05:24:56;;;;;;;11.73;10.63;;;;;;;;;;5029004;28;20521;-67
2022/11/23 05:27:21;;;;;;;13.27;11.90;;;;;;;;;;5021544;28;20220;-67
2022/11/23 05:29:47;;;;;;;12.07;10.87;;;;;;;;;;5022371;28;20630;-67
2022/11/23 05:32:12;;;;;;;11.93;10.83;;;;;;;;;;5034511;28;20307;-67
2022/11/23 05:34:37;;;;;;;12.20;11.20;;;;;;;;;;5031228;28;20267;-67
2022/11/23 05:37:03;;;;;;;12.53;11.07;;;;;;;;;;5032905;28;20641;-67
2022/11/23 05:39:28;;;;;;;11.97;10.77;;;;;;;;;;5031793;28;20250;-67
2022/11/23 05:41:53;;;;;;;13.70;11.90;;;;;;;;;;5027154;28;20630;-67
2022/11/23 05:44:19;;;;;;;12.43;11.33;;;;;;;;;;5030772;28;20238;-67
2022/11/23 05:46:44;;;;;;;13.03;11.70;;;;;;;;;;5002590;28;20223;-67
2022/11/23 05:49:09;;;;;;;13.40;12.00;;;;;;;;;;5035793;28;20295;-67
2022/11/23 05:51:34;;;;;;;13.30;12.00;;;;;;;;;;5026597;28;20653;-67
2022/11/23 05:54:00;;;;;;;13.53;12.33;;;;;;;;;;5029933;28;20181;-67
2022/11/23 05:56:26;;;;;;;15.07;11.93;;;;;;;;;;5033023;28;20231;-67
2022/11/23 05:58:53;;;;;;;13.73;12.33;;;;;;;;;;5035344;28;20497;-67
2022/11/23 06:01:18;;;;;;;13.23;11.93;;;;;;;;;;5036415;28;20200;-67
2022/11/23 06:03:44;;;;;;;13.17;11.97;;;;;;;;;;5037365;28;20470;-67
2022/11/23 06:06:09;;;;;;;14.37;11.63;;;;;;;;;;5035825;28;20662;-67
2022/11/23 06:08:35;;;;;;;14.17;12.83;;;;;;;;;;5032485;28;20184;-67
2022/11/23 06:11:00;;;;;;;13.83;12.40;;;;;;;;;;5032424;28;20649;-67
2022/11/23 06:13:26;;;;;;;13.83;12.30;;;;;;;;;;5015816;28;20207;-67
2022/11/23 06:15:51;;;;;;;12.37;11.17;;;;;;;;;;5016277;28;20223;-67
2022/11/23 06:18:16;;;;;;;13.20;12.00;;;;;;;;;;5037392;28;20872;-67
2022/11/23 06:20:41;;;;;;;13.73;12.10;;;;;;;;;;5033025;28;20183;-67
2022/11/23 06:23:07;;;;;;;12.60;11.40;;;;;;;;;;5036473;28;20665;-67
2022/11/23 06:25:32;;;;;;;14.03;11.70;;;;;;;;;;5032430;28;20204;-67
2022/11/23 06:27:58;;;;;;;13.90;12.50;;;;;;;;;;5035102;28;20216;-67
2022/11/23 06:30:24;;;;;;;14.23;12.73;;;;;;;;;;5032951;28;20587;-67
2022/11/23 06:32:50;;;;;;;19.40;12.67;;;;;;;;;;5016132;28;20442;-67
2022/11/23 06:35:15;;;;;;;14.93;13.40;;;;;;;;;;5034162;28;20201;-66
2022/11/23 06:37:41;;;;;;;14.60;13.10;;;;;;;;;;5034252;28;20561;-67
2022/11/23 06:40:06;;;;;;;16.70;13.03;;;;;;;;;;5033122;28;20192;-67
2022/11/23 06:42:31;;;;;;;14.10;12.40;;;;;;;;;;5036367;28;20180;-66
2022/11/23 06:44:57;;;;;;;14.27;12.17;;;;;;;;;;5017145;28;20184;-67
2022/11/23 06:47:22;;;;;;;14.73;11.83;;;;;;;;;;5033728;28;20215;-67
2022/11/23 06:49:47;;;;;;;21.93;13.03;;;;;;;;;;5001040;28;20243;-67
2022/11/23 06:52:12;;;;;;;16.90;12.70;;;;;;;;;;5033457;28;20275;-67
2022/11/23 06:54:38;;;;;;;17.73;13.27;;;;;;;;;;5035516;28;20229;-67
2022/11/23 06:57:06;;;;;;;17.30;12.20;;;;;;;;;;5034741;28;20242;-66
2022/11/23 06:59:31;;;;;;;14.37;12.83;;;;;;;;;;5033117;28;20216;-67
2022/11/23 07:01:57;;;;;;;13.67;12.00;;;;;;;;;;5031637;28;20895;-67
2022/11/23 07:04:22;;;;;;;15.80;12.30;;;;;;;;;;5032712;28;20234;-67
2022/11/23 07:06:47;;;;;;;12.57;11.00;;;;;;;;;;5033613;28;20212;-67
2022/11/23 07:09:12;;;;;;;14.40;11.47;;;;;;;;;;5026180;28;20714;-67
2022/11/23 07:11:38;;;;;;;17.13;12.47;;;;;;;;;;5031419;28;20176;-67
2022/11/23 07:14:03;;;;;;;13.43;11.10;;;;;;;;;;5033159;28;20182;-67
2022/11/23 07:16:28;;;;;;;13.93;11.37;;;;;;;;;;5034746;28;20553;-67
2022/11/23 07:18:53;;;;;;;16.60;11.80;;;;;;;;;;5035392;28;20630;-67
2022/11/23 07:21:19;;;;;;;14.37;11.60;;;;;;;;;;5031624;28;20190;-67
2022/11/23 07:23:44;;;;;;;13.53;10.60;;;;;;;;;;5028137;28;20203;-67
2022/11/23 07:26:09;;;;;;;17.40;11.70;;;;;;;;;;5033000;28;20208;-66
2022/11/23 07:28:35;;;;;;;13.67;10.90;;;;;;;;;;5030899;28;20177;-67
2022/11/23 07:31:00;;;;;;;13.20;9.77;;;;;;;;;;5014086;28;20187;-67
2022/11/23 07:33:25;;;;;;;12.17;9.90;;;;;;;;;;5031732;28;20191;-67
2022/11/23 07:35:51;;;;;;;16.00;10.50;;;;;;;;;;5029937;28;20258;-67
2022/11/23 07:38:16;;;;;;;10.97;9.20;;;;;;;;;;5028743;28;20184;-67
2022/11/23 07:40:41;;;;;;;16.07;10.30;;;;;;;;;;5032090;28;20188;-67
2022/11/23 07:43:06;;;;;;;15.90;9.90;;;;;;;;;;5016855;28;20238;-67
2022/11/23 07:45:32;;;;;;;12.13;10.13;;;;;;;;;;5031172;28;20686;-67
2022/11/23 07:47:59;;;;;;;14.50;9.93;;;;;;;;;;5027423;28;20188;-67
2022/11/23 07:50:24;;;;;;;14.73;9.67;;;;;;;;;;5024005;28;20430;-67
2022/11/23 07:52:49;;;;;;;13.93;9.53;;;;;;;;;;5026750;28;20869;-67
2022/11/23 07:55:14;;;;;;;16.97;9.70;;;;;;;;;;5025741;28;20188;-67
2022/11/23 07:57:40;;;;;;;10.07;9.00;;;;;;;;;;5029814;28;20251;-67
2022/11/23 08:00:05;;;;;;;17.67;8.40;;;;;;;;;;5027648;28;20671;-67
2022/11/23 08:02:31;;;;;;;13.63;8.77;;;;;;;;;;5025619;28;20208;-67
2022/11/23 08:04:56;;;;;;;12.23;8.00;;;;;;;;;;5025329;28;20234;-67
2022/11/23 08:07:21;;;;;;;13.03;7.83;;;;;;;;;;5019765;28;20222;-67
2022/11/23 08:09:51;;;;;;;12.87;7.97;;;;;;;;;;5016426;28;20290;-67
2022/11/23 08:12:17;;;;;;;15.73;7.00;;;;;;;;;;5029578;28;21066;-67
2022/11/23 08:14:42;;;;;;;9.27;7.30;;;;;;;;;;5033599;28;20168;-67
2022/11/23 08:17:07;;;;;;;13.07;7.50;;;;;;;;;;5028951;28;20559;-67
2022/11/23 08:19:33;;;;;;;12.97;7.87;;;;;;;;;;5030170;28;20177;-67
2022/11/23 08:21:58;;;;;;;13.83;7.07;;;;;;;;;;5028325;28;20646;-67
2022/11/23 08:24:23;;;;;;;12.03;6.80;;;;;;;;;;5033667;28;20180;-67
2022/11/23 08:26:48;;;;;;;14.90;6.83;;;;;;;;;;5013489;28;20211;-66
2022/11/23 08:29:14;;;;;;;11.30;6.73;;;;;;;;;;5029797;28;20179;-67
2022/11/23 08:31:39;;;;;;;17.37;7.30;;;;;;;;;;5028506;28;20180;-67
2022/11/23 08:34:04;;;;;;;13.07;6.70;;;;;;;;;;5033748;28;20175;-66
2022/11/23 08:36:29;;;;;;;9.57;6.60;;;;;;;;;;5029708;28;20583;-67
2022/11/23 08:38:55;;;;;;;13.43;5.97;;;;;;;;;;5010876;28;20184;-67
2022/11/23 08:41:20;;;;;;;21.03;7.63;;;;;;;;;;5030857;28;20637;-67
2022/11/23 08:43:49;;;;;;;11.87;5.83;;;;;;;;;;5032139;28;20173;-66
2022/11/23 08:46:14;;;;;;;11.53;5.80;;;;;;;;;;5028437;28;20216;-67
2022/11/23 08:48:40;;;;;;;15.23;5.63;;;;;;;;;;5032668;28;20414;-67
2022/11/23 08:51:05;;;;;;;13.00;5.97;;;;;;;;;;5035720;28;20620;-66
2022/11/23 08:53:30;;;;;;;13.80;6.13;;;;;;;;;;5031938;28;20699;-67
2022/11/23 08:55:59;;;;;;;10.50;5.73;;;;;;;;;;5035015;28;20208;-67
2022/11/23 08:58:24;;;;;;;11.80;6.37;;;;;;;;;;5020139;28;20275;-66
2022/11/23 09:00:49;;;;;;;13.80;6.23;;;;;;;;;;5027973;28;20881;-67
2022/11/23 09:03:15;;;;;;;8.23;5.03;;;;;;;;;;5030712;28;20185;-67
2022/11/23 09:05:40;;;;;;;14.73;6.20;;;;;;;;;;5014513;28;20749;-67
2022/11/23 09:08:05;;;;;;;8.37;4.83;;;;;;;;;;5029467;28;20185;-67
2022/11/23 09:10:30;;;;;;;9.77;6.17;;;;;;;;;;5035427;28;20660;-67
2022/11/23 09:12:57;;;;;;;9.07;4.63;;;;;;;;;;5023542;28;20176;-67
2022/11/23 09:15:22;;;;;;;13.37;5.17;;;;;;;;;;5026125;28;20185;-67
2022/11/23 09:17:47;;;;;;;7.87;5.00;;;;;;;;;;5024633;28;20904;-67
2022/11/23 09:20:13;;;;;;;7.57;4.40;;;;;;;;;;5034174;28;20176;-67
2022/11/23 09:22:38;;;;;;;10.00;4.90;;;;;;;;;;5032814;28;20176;-67
2022/11/23 09:25:04;;;;;;;9.13;5.33;;;;;;;;;;5035704;28;20187;-67
2022/11/23 09:27:29;;;;;;;8.07;4.63;;;;;;;;;;5030785;28;20266;-67
2022/11/23 09:29:54;;;;;;;11.23;5.60;;;;;;;;;;5023960;28;20187;-67
2022/11/23 09:32:20;;;;;;;12.07;5.87;;;;;;;;;;5018863;28;20183;-67
2022/11/23 09:34:45;;;;;;;16.00;5.77;;;;;;;;;;5023934;28;20631;-67
2022/11/23 09:37:11;;;;;;;16.13;6.00;;;;;;;;;;5017007;28;20624;-66
2022/11/23 09:39:36;;;;;;;14.27;5.13;;;;;;;;;;5013163;28;20188;-67
2022/11/23 09:42:16;;;;;;;10.00;5.17;;;;;;;;;;5017290;28;20176;-67
2022/11/23 09:44:41;;;;;;;11.90;5.00;;;;;;;;;;5000211;28;20188;-67
2022/11/23 09:47:13;;;;;;;14.13;5.57;;;;;;;;;;5029571;28;20532;-67
2022/11/23 09:49:44;;;;;;;9.43;5.00;;;;;;;;;;5029884;28;20179;-66
2022/11/23 09:52:20;;;;;;;17.33;6.23;;;;;;;;;;5030880;28;20434;-66
2022/11/23 09:54:46;;;;;;;12.30;6.23;;;;;;;;;;5017959;28;20430;-67
2022/11/23 09:57:15;;;;;;;18.77;6.30;;;;;;;;;;4999624;28;20461;-67
2022/11/23 09:59:48;;;;;;;10.97;6.07;;;;;;;;;;5003704;28;20485;-67
2022/11/23 10:02:19;;;;;;;17.83;6.70;;;;;;;;;;5011438;28;20437;-67
2022/11/23 10:04:45;;;;;;;20.60;5.93;;;;;;;;;;5017063;28;20463;-67
2022/11/23 10:07:10;;;;;;;17.70;6.20;;;;;;;;;;5021894;28;20867;-67
2022/11/23 10:09:50;;;;;;;10.13;5.03;;;;;;;;;;5016127;28;20191;-67
2022/11/23 10:12:31;;;;;;;19.70;5.70;;;;;;;;;;5007714;28;20549;-67
2022/11/23 10:14:56;;;;;;;11.07;5.10;;;;;;;;;;5030458;28;20429;-67
2022/11/23 10:17:40;;;;;;;20.43;6.30;;;;;;;;;;5032275;28;20807;-66
2022/11/23 10:20:34;;;;;;;9.40;4.70;;;;;;;;;;5029747;28;20176;-67
2022/11/23 10:23:01;;;;;;;9.60;5.07;;;;;;;;;;4943187;28;20439;-67
2022/11/23 10:25:30;;;;;;;15.40;5.00;;;;;;;;;;5027823;28;20444;-66
2022/11/23 10:27:58;;;;;;;14.80;5.00;;;;;;;;;;5028067;28;20645;-66
2022/11/23 10:30:23;;;;;;;14.87;3.83;;;;;;;;;;5017703;28;20427;-66
2022/11/23 10:32:51;;;;;;;15.20;4.47;;;;;;;;;;5028178;28;20466;-67
2022/11/23 10:35:22;;;;;;;12.93;4.00;;;;;;;;;;5033238;28;20232;-66
2022/11/23 10:37:47;;;;;;;12.07;4.00;;;;;;;;;;5028049;28;20462;-67
2022/11/23 10:40:17;;;;;;;15.63;4.27;;;;;;;;;;5014656;28;20791;-67
2022/11/23 10:43:09;;;;;;;16.13;4.60;;;;;;;;;;5013106;28;20184;-66
2022/11/23 10:45:34;;;;;;;12.87;4.30;;;;;;;;;;5018103;28;20454;-67
2022/11/23 10:47:59;;;;;;;12.00;4.47;;;;;;;;;;5018799;28;20423;-67
2022/11/23 10:50:29;;;;;;;13.87;4.13;;;;;;;;;;5033946;28;20171;-66
2022/11/23 10:53:21;;;;;;;14.97;3.90;;;;;;;;;;5033791;28;20191;-67
2022/11/23 10:58:45;;;;;;;10.33;3.97;;;;;;;;;;5019287;28;20495;-76
2022/11/23 11:01:19;;;;;;;10.10;3.40;;;;;;;;;;5005951;28;21016;-81
2022/11/23 11:03:45;;;;;;;11.90;4.07;;;;;;;;;;5022040;28;20437;-78
2022/11/23 11:06:10;;;;;;;13.80;3.70;;;;;;;;;;5021667;28;20459;-78
2022/11/23 11:09:16;;;;;;;13.30;5.00;;;;;;;;;;5006858;28;20171;-79
2022/11/23 11:11:45;;;;;;;9.50;3.53;;;;;;;;;;5016803;28;20177;-80
2022/11/23 11:14:13;;;;;;;16.13;4.10;;;;;;;;;;5009270;28;20400;-79
2022/11/23 11:16:46;;;;;;;15.77;3.43;;;;;;;;;;5023479;28;20451;-80
2022/11/23 11:19:30;;;;;;;15.10;4.20;;;;;;;;;;5009765;28;20412;-80
2022/11/23 11:21:56;;;;;;;16.63;3.90;;;;;;;;;;5005635;28;20427;-79
2022/11/23 11:24:31;;;;;;;9.93;3.50;;;;;;;;;;5025592;28;20455;-80
2022/11/23 11:26:58;;;;;;;8.70;3.47;;;;;;;;;;5016366;28;20816;-79
2022/11/23 11:29:31;;;;;;;13.10;4.00;;;;;;;;;;5003138;28;20415;-80
2022/11/23 11:32:00;;;;;;;11.50;3.80;;;;;;;;;;5027324;28;20407;-80
2022/11/23 11:34:30;;;;;;;15.03;4.03;;;;;;;;;;5027773;28;21072;-79
2022/11/23 11:37:06;;;;;;;14.13;4.10;;;;;;;;;;5017971;28;20454;-80
2022/11/23 11:39:39;;;;;;;9.70;4.00;;;;;;;;;;5024184;28;20797;-80
2022/11/23 11:42:07;;;;;;;7.13;3.37;;;;;;;;;;5022700;28;20418;-79
2022/11/23 11:44:35;;;;;;;18.23;4.43;;;;;;;;;;5024073;28;20955;-80
2022/11/23 11:47:03;;;;;;;9.33;3.87;;;;;;;;;;5022418;28;20471;-80
2022/11/23 11:49:43;;;;;;;12.97;4.00;;;;;;;;;;5022321;28;20513;-80
2022/11/23 11:52:14;;;;;;;10.60;4.10;;;;;;;;;;5024218;28;20507;-80
2022/11/23 11:54:39;;;;;;;15.00;4.63;;;;;;;;;;5022252;28;20428;-79
2022/11/23 11:57:25;;;;;;;10.57;3.80;;;;;;;;;;5018654;28;20490;-79
2022/11/23 11:59:54;;;;;;;12.50;3.77;;;;;;;;;;5008717;28;20215;-80
2022/11/23 12:02:28;;;;;;;10.73;2.63;;;;;;;;;;5003576;28;20502;-80
2022/11/23 12:05:00;;;;;;;13.47;3.50;;;;;;;;;;5022124;28;20412;-80
2022/11/23 12:07:30;;;;;;;13.60;3.07;;;;;;;;;;5022244;28;20470;-80
2022/11/23 12:09:59;;;;;;;11.43;3.23;;;;;;;;;;5010903;28;20850;-79
2022/11/23 12:12:24;;;;;;;15.73;3.27;;;;;;;;;;5021511;28;20464;-79
2022/11/23 12:14:50;;;;;;;11.10;3.33;;;;;;;;;;5004977;28;20463;-80
2022/11/23 12:17:34;;;;;;;11.83;3.27;;;;;;;;;;5021233;28;20207;-79
2022/11/23 12:20:02;;;;;;;13.80;3.30;;;;;;;;;;5018462;28;20184;-79
2022/11/23 12:22:27;;;;;;;16.43;4.03;;;;;;;;;;5016417;28;20805;-79
2022/11/23 12:25:13;;;;;;;13.97;3.40;;;;;;;;;;5027574;28;20427;-79
2022/11/23 12:27:38;;;;;;;12.90;3.60;;;;;;;;;;5024192;28;20254;-80
2022/11/23 12:30:17;;;;;;;16.43;4.03;;;;;;;;;;5024454;28;20435;-79
2022/11/23 12:32:54;;;;;;;9.37;3.00;;;;;;;;;;5031122;28;20243;-79
2022/11/23 12:35:19;;;;;;;10.40;3.23;;;;;;;;;;5028601;28;20493;-79
2022/11/23 12:37:57;;;;;;;15.13;4.13;;;;;;;;;;5023501;28;20558;-80
2022/11/23 12:40:29;;;;;;;9.57;3.07;;;;;;;;;;5012981;28;20215;-80
2022/11/23 12:42:59;;;;;;;9.97;3.77;;;;;;;;;;5029498;28;20834;-79
2022/11/23 12:45:27;;;;;;;11.90;4.40;;;;;;;;;;5024568;28;20454;-80
2022/11/23 12:48:11;;;;;;;11.47;4.37;;;;;;;;;;5027155;28;20942;-79
2022/11/23 12:50:45;;;;;;;9.70;4.70;;;;;;;;;;5031441;28;20988;-79
2022/11/23 12:53:22;;;;;;;16.23;4.63;;;;;;;;;;5027268;28;20484;-80
2022/11/23 12:56:00;;;;;;;6.50;3.63;;;;;;;;;;5035187;28;20418;-83
2022/11/23 12:58:29;;;;;;;13.63;5.17;;;;;;;;;;5019361;28;20450;-83
2022/11/23 13:01:06;;;;;;;13.90;6.20;;;;;;;;;;5036343;23;20501;-68
2022/11/23 13:03:31;;;;;;;15.70;6.10;;;;;;;;;;5024300;28;21054;-68
2022/11/23 13:06:15;;;;;;;13.17;6.87;;;;;;;;;;5026428;28;20459;-68
2022/11/23 13:08:46;;;;;;;9.50;6.27;;;;;;;;;;5026649;28;20196;-68
2022/11/23 13:11:14;;;;;;;12.57;6.60;;;;;;;;;;5018087;28;20427;-68
2022/11/23 13:14:01;;;;;;;13.57;6.20;;;;;;;;;;5003291;28;20449;-68
2022/11/23 13:16:26;;;;;;;11.50;6.17;;;;;;;;;;5021048;28;20435;-68
2022/11/23 13:18:52;;;;;;;13.33;6.17;;;;;;;;;;4994534;28;20518;-68
2022/11/23 13:21:34;;;;;;;11.10;6.00;;;;;;;;;;5017442;28;20189;-68
2022/11/23 13:23:59;;;;;;;12.67;6.50;;;;;;;;;;5020526;28;20456;-68
2022/11/23 13:26:27;;;;;;;9.17;5.00;;;;;;;;;;5020966;28;20467;-68
2022/11/23 13:28:53;;;;;;;14.90;5.70;;;;;;;;;;5012387;28;20215;-68
2022/11/23 13:31:20;;;;;;;11.33;5.83;;;;;;;;;;5013788;28;20558;-68
2022/11/23 13:33:46;;;;;;;10.90;5.07;;;;;;;;;;5019274;28;20415;-68
2022/11/23 13:36:30;;;;;;;11.70;4.70;;;;;;;;;;5008006;28;21004;-69
2022/11/23 13:38:56;;;;;;;16.83;5.27;;;;;;;;;;4985875;28;20540;-68
2022/11/23 13:41:34;;;;;;;10.10;4.27;;;;;;;;;;4992476;28;20530;-68
2022/11/23 13:44:16;;;;;;;11.23;4.17;;;;;;;;;;4998446;28;20442;-68
2022/11/23 13:46:41;;;;;;;8.83;3.70;;;;;;;;;;5011430;28;20459;-68
2022/11/23 13:49:26;;;;;;;13.60;4.00;;;;;;;;;;5002606;28;21019;-68
2022/11/23 13:52:03;;;;;;;8.03;4.37;;;;;;;;;;5015475;28;20620;-69
2022/11/23 13:54:29;;;;;;;10.87;4.03;;;;;;;;;;4988290;28;20435;-68
2022/11/23 13:57:00;;;;;;;11.57;3.83;;;;;;;;;;4980336;28;20443;-68
2022/11/23 13:59:25;;;;;;;14.47;3.60;;;;;;;;;;4977936;28;20212;-68
2022/11/23 14:01:56;;;;;;;10.47;3.80;;;;;;;;;;5014772;28;20568;-68
2022/11/23 14:04:22;;;;;;;7.80;3.03;;;;;;;;;;5005528;28;20204;-68
2022/11/23 14:06:54;;;;;;;10.87;3.17;;;;;;;;;;5007326;28;20602;-68
2022/11/23 14:09:24;;;;;;;5.70;2.83;;;;;;;;;;5014460;28;20458;-68
2022/11/23 14:12:08;;;;;;;7.93;3.20;;;;;;;;;;4997444;28;20457;-68
2022/11/23 14:14:39;;;;;;;9.77;4.90;;;;;;;;;;5009317;28;20431;-68
2022/11/23 14:17:12;;;;;;;11.43;4.30;;;;;;;;;;5017850;28;20420;-68
2022/11/23 14:19:56;;;;;;;9.63;3.00;;;;;;;;;;4982812;28;20459;-69
2022/11/23 14:22:39;;;;;;;9.40;3.10;;;;;;;;;;5012503;28;20439;-68
2022/11/23 14:25:22;;;;;;;12.13;3.13;;;;;;;;;;5014700;28;21282;-68
2022/11/23 14:27:59;;;;;;;11.63;2.80;;;;;;;;;;5017124;28;20531;-68
2022/11/23 14:30:30;;;;;;;8.20;3.10;;;;;;;;;;5014968;28;20455;-68
2022/11/23 14:33:12;;;;;;;8.60;3.10;;;;;;;;;;5016733;28;20415;-68
2022/11/23 14:35:47;;;;;;;6.70;2.73;;;;;;;;;;5014447;28;20438;-68
2022/11/23 14:38:31;;;;;;;9.03;3.07;;;;;;;;;;5011969;28;20436;-68